Time;durP1;ratioP1;P1;durP2;ratioP2;P2;SDS_P1;SDS_P2;PMS_P1;PMS_P2;Temp;Humidity;BMP_temperature;BMP_pressure;BME280_temperature;BME280_humidity;BME280_pressure;Samples;Min_cycle;Max_cycle;Signal;HPM_P1;HPM_P2
2023/03/17 00:02:58;;;;;;;5.27;3.23;;;;;3.70;96316.00;;;;8433789;28;20222;-74
2023/03/17 00:07:07;;;;;;;3.53;3.00;;;;;3.70;96318.00;;;;8426966;28;20195;-72
2023/03/17 00:11:12;;;;;;;5.73;3.30;;;;;3.70;96311.00;;;;8443291;28;20202;-76
2023/03/17 00:15:19;;;;;;;5.13;3.20;;;;;3.60;96314.00;;;;8436043;27;20221;-76
2023/03/17 00:19:28;;;;;;;6.27;3.10;;;;;3.60;96307.00;;;;8444773;27;20205;-77
2023/03/17 00:23:34;;;;;;;4.00;3.13;;;;;3.50;96306.00;;;;8441214;28;20208;-74
2023/03/17 00:27:37;;;;;;;5.63;2.90;;;;;3.50;96297.00;;;;8440782;27;20196;-71
2023/03/17 00:31:42;;;;;;;4.97;3.10;;;;;3.50;96298.00;;;;8435713;27;20280;-71
2023/03/17 00:35:46;;;;;;;6.23;3.20;;;;;3.50;96296.00;;;;8440118;28;20672;-74
2023/03/17 00:39:53;;;;;;;5.43;2.73;;;;;3.40;96283.00;;;;8437660;27;20230;-73
2023/03/17 00:43:57;;;;;;;4.57;3.20;;;;;3.40;96272.00;;;;8448653;28;20719;-73
2023/03/17 00:48:01;;;;;;;5.80;3.10;;;;;3.40;96276.00;;;;8436922;28;20207;-72
2023/03/17 00:52:06;;;;;;;3.90;2.83;;;;;3.40;96263.00;;;;8448963;27;21453;-75
2023/03/17 00:56:14;;;;;;;5.20;2.77;;;;;3.40;96269.00;;;;8442023;28;20192;-75
2023/03/17 01:00:21;;;;;;;7.73;2.90;;;;;3.40;96271.00;;;;8432226;27;20925;-71
2023/03/17 01:04:27;;;;;;;3.50;2.60;;;;;3.40;96263.00;;;;8426355;28;20225;-76
2023/03/17 01:08:31;;;;;;;3.30;2.87;;;;;3.40;96261.00;;;;8430278;27;20659;-77
2023/03/17 01:12:37;;;;;;;4.27;2.90;;;;;3.30;96248.00;;;;8441242;27;20237;-74
2023/03/17 01:16:43;;;;;;;4.03;2.70;;;;;3.20;96241.00;;;;8434763;27;20463;-76
2023/03/17 01:20:49;;;;;;;3.70;3.00;;;;;3.20;96239.00;;;;8440951;27;20623;-71
2023/03/17 01:24:53;;;;;;;6.07;2.87;;;;;3.20;96227.00;;;;8429470;27;20192;-73
2023/03/17 01:28:58;;;;;;;8.27;3.00;;;;;3.30;96208.00;;;;8438071;28;20205;-73
2023/03/17 01:33:01;;;;;;;9.53;3.40;;;;;3.30;96205.00;;;;8430939;27;20346;-73
2023/03/17 01:37:05;;;;;;;4.37;2.67;;;;;3.30;96191.00;;;;8440895;27;20296;-74
2023/03/17 01:41:11;;;;;;;5.97;3.40;;;;;3.30;96191.00;;;;8450468;28;20200;-78
2023/03/17 01:45:51;;;;;;;5.63;2.93;;;;;3.30;96191.00;;;;8438604;27;20300;-71
2023/03/17 01:49:59;;;;;;;5.00;2.97;;;;;3.40;96189.00;;;;8441127;27;20303;-72
2023/03/17 01:54:07;;;;;;;4.50;3.00;;;;;3.50;96183.00;;;;8428933;27;20299;-72
2023/03/17 01:58:10;;;;;;;3.23;2.70;;;;;3.50;96187.00;;;;8443546;27;20196;-72
2023/03/17 02:02:20;;;;;;;5.50;3.10;;;;;3.50;96195.00;;;;8429071;27;20231;-76
2023/03/17 02:06:25;;;;;;;4.17;2.60;;;;;3.50;96194.00;;;;8443669;28;20579;-73
2023/03/17 02:10:30;;;;;;;7.13;2.80;;;;;3.50;96200.00;;;;8439006;28;20202;-74
2023/03/17 02:14:35;;;;;;;5.57;3.10;;;;;3.50;96194.00;;;;8439775;28;20316;-74
2023/03/17 02:18:38;;;;;;;6.17;2.90;;;;;3.40;96182.00;;;;8442772;28;20587;-73
2023/03/17 02:22:43;;;;;;;6.87;3.00;;;;;3.40;96180.00;;;;8444119;27;20201;-76
2023/03/17 02:26:49;;;;;;;4.37;2.80;;;;;3.30;96173.00;;;;8441293;28;20327;-74
2023/03/17 02:30:54;;;;;;;7.03;3.00;;;;;3.30;96174.00;;;;8436227;27;20202;-76
2023/03/17 02:34:57;;;;;;;3.10;2.80;;;;;3.30;96169.00;;;;8440668;28;20260;-76
2023/03/17 02:39:04;;;;;;;4.13;2.80;;;;;3.30;96176.00;;;;8437795;27;20545;-76
2023/03/17 02:43:10;;;;;;;6.00;3.20;;;;;3.20;96162.00;;;;8444911;28;20216;-74
2023/03/17 02:47:16;;;;;;;7.33;3.27;;;;;3.20;96157.00;;;;8441989;27;20255;-76
2023/03/17 02:51:19;;;;;;;5.53;2.97;;;;;3.20;96164.00;;;;8439229;28;20214;-74
2023/03/17 02:55:25;;;;;;;6.43;3.07;;;;;3.20;96167.00;;;;8442951;28;20290;-72
2023/03/17 02:59:28;;;;;;;4.13;3.00;;;;;3.20;96168.00;;;;8436825;27;20209;-77
2023/03/17 03:03:31;;;;;;;8.57;3.00;;;;;3.10;96153.00;;;;8442654;22;20229;-76
2023/03/17 03:07:36;;;;;;;3.17;2.87;;;;;3.10;96147.00;;;;8407777;28;20267;-74
2023/03/17 03:11:41;;;;;;;3.27;2.80;;;;;3.10;96157.00;;;;8412575;28;20202;-76
2023/03/17 03:15:50;;;;;;;5.27;3.30;;;;;3.10;96149.00;;;;8403759;28;20219;-75
2023/03/17 03:19:54;;;;;;;4.07;3.07;;;;;3.10;96140.00;;;;8403958;28;20218;-71
2023/03/17 03:23:57;;;;;;;5.63;3.10;;;;;3.10;96144.00;;;;8403163;28;20194;-71
2023/03/17 03:28:01;;;;;;;5.93;3.07;;;;;3.20;96149.00;;;;8404076;28;20614;-77
2023/03/17 03:32:05;;;;;;;4.53;3.23;;;;;3.20;96147.00;;;;8406385;28;20209;-77
2023/03/17 03:36:10;;;;;;;5.63;3.10;;;;;3.30;96153.00;;;;8399400;28;20225;-77
2023/03/17 03:40:17;;;;;;;5.57;2.90;;;;;3.30;96158.00;;;;8402932;28;20230;-72
2023/03/17 03:44:25;;;;;;;6.20;2.73;;;;;3.30;96165.00;;;;8404937;28;20206;-77
2023/03/17 03:48:32;;;;;;;12.73;3.13;;;;;3.30;96155.00;;;;8385730;28;20210;-76
2023/03/17 03:52:35;;;;;;;3.90;2.90;;;;;3.30;96150.00;;;;8404232;28;20263;-74
2023/03/17 03:56:38;;;;;;;6.90;3.20;;;;;3.30;96153.00;;;;8401135;28;21039;-73
2023/03/17 04:00:51;;;;;;;5.10;3.30;;;;;3.30;96149.00;;;;8387376;28;20551;-75
2023/03/17 04:04:56;;;;;;;4.53;2.80;;;;;3.30;96141.00;;;;8367089;28;20231;-76
2023/03/17 04:09:04;;;;;;;4.67;2.80;;;;;3.30;96135.00;;;;8358911;28;20206;-72
2023/03/17 04:13:10;;;;;;;6.60;2.90;;;;;3.20;96136.00;;;;8378116;28;20259;-70
2023/03/17 04:17:22;;;;;;;4.27;2.77;;;;;3.20;96135.00;;;;8360655;28;20198;-75
2023/03/17 04:21:26;;;;;;;5.07;3.30;;;;;3.20;96126.00;;;;8366021;28;20208;-76
2023/03/17 04:25:29;;;;;;;5.83;3.03;;;;;3.20;96118.00;;;;8356137;28;20289;-77
2023/03/17 04:29:35;;;;;;;4.03;2.83;;;;;3.30;96116.00;;;;8361237;28;20262;-74
2023/03/17 04:33:39;;;;;;;5.93;3.30;;;;;3.30;96120.00;;;;8363566;28;20197;-74
2023/03/17 04:37:43;;;;;;;6.60;3.70;;;;;3.40;96129.00;;;;8363966;28;20200;-70
2023/03/17 04:41:47;;;;;;;5.10;3.00;;;;;3.50;96124.00;;;;8367011;28;20201;-74
2023/03/17 04:45:50;;;;;;;7.43;3.17;;;;;3.60;96120.00;;;;8370430;28;20268;-71
2023/03/17 04:49:56;;;;;;;5.43;2.67;;;;;3.60;96131.00;;;;8374114;28;20617;-75
2023/03/17 04:54:02;;;;;;;8.17;4.03;;;;;3.60;96146.00;;;;8370142;28;20850;-71
2023/03/17 04:58:05;;;;;;;4.73;3.03;;;;;3.60;96127.00;;;;8369373;28;20232;-72
2023/03/17 05:02:09;;;;;;;5.63;2.90;;;;;3.60;96127.00;;;;8369344;28;20828;-72
2023/03/17 05:06:15;;;;;;;5.90;3.00;;;;;3.70;96128.00;;;;8372691;28;20293;-77
2023/03/17 05:10:20;;;;;;;4.90;3.23;;;;;3.60;96120.00;;;;8370347;28;20209;-73
2023/03/17 05:14:23;;;;;;;4.83;3.00;;;;;3.50;96119.00;;;;8381030;28;20694;-70
2023/03/17 05:18:26;;;;;;;7.03;3.00;;;;;3.50;96121.00;;;;8369814;28;20215;-74
2023/03/17 05:22:33;;;;;;;6.73;3.50;;;;;3.40;96123.00;;;;8364651;28;20204;-71
2023/03/17 05:26:36;;;;;;;4.13;2.87;;;;;3.40;96133.00;;;;8354652;28;20215;-76
2023/03/17 05:30:39;;;;;;;6.43;2.87;;;;;3.40;96134.00;;;;8363708;28;20698;-73
2023/03/17 05:34:46;;;;;;;4.23;2.57;;;;;3.40;96132.00;;;;8374180;28;20235;-73
2023/03/17 05:38:52;;;;;;;3.47;2.70;;;;;3.40;96153.00;;;;8371788;28;20236;-73
2023/03/17 05:42:55;;;;;;;4.27;3.07;;;;;3.30;96146.00;;;;8367510;28;20205;-70
2023/03/17 05:46:59;;;;;;;4.20;2.77;;;;;3.40;96147.00;;;;8352238;28;20248;-69
2023/03/17 05:51:03;;;;;;;6.23;2.80;;;;;3.50;96135.00;;;;8364536;28;20200;-69
2023/03/17 05:55:11;;;;;;;5.97;3.20;;;;;3.50;96122.00;;;;8345964;28;20311;-72
2023/03/17 05:59:15;;;;;;;11.40;3.20;;;;;3.60;96126.00;;;;8361735;28;20645;-71
2023/03/17 06:03:20;;;;;;;5.17;2.80;;;;;3.70;96121.00;;;;8363568;28;20846;-69
2023/03/17 06:07:26;;;;;;;8.03;3.40;;;;;3.70;96128.00;;;;8366151;28;20252;-70
2023/03/17 06:11:51;;;;;;;8.20;2.83;;;;;3.70;96130.00;;;;8366168;28;20260;-72
2023/03/17 06:15:57;;;;;;;7.03;3.23;;;;;3.80;96124.00;;;;8355714;28;20539;-70
2023/03/17 06:20:00;;;;;;;3.40;3.00;;;;;3.80;96123.00;;;;8363347;28;20202;-71
2023/03/17 06:24:18;;;;;;;3.10;2.83;;;;;3.90;96124.00;;;;8327115;28;20655;-71
2023/03/17 06:28:36;;;;;;;5.73;3.20;;;;;3.90;96127.00;;;;8356180;28;20191;-71
2023/03/17 06:32:41;;;;;;;6.40;3.40;;;;;4.00;96121.00;;;;8363666;28;20287;-72
2023/03/17 06:36:49;;;;;;;6.97;3.50;;;;;4.00;96128.00;;;;8364599;28;20298;-76
2023/03/17 06:40:53;;;;;;;6.03;3.10;;;;;4.00;96131.00;;;;8362248;28;20195;-72
2023/03/17 06:44:57;;;;;;;4.40;3.07;;;;;4.10;96129.00;;;;8361409;28;20906;-73
2023/03/17 06:49:02;;;;;;;4.97;3.20;;;;;4.20;96124.00;;;;8365847;28;20194;-73
2023/03/17 06:53:06;;;;;;;3.13;2.73;;;;;4.40;96131.00;;;;8363500;28;20204;-73
2023/03/17 06:57:09;;;;;;;4.83;2.93;;;;;4.60;96129.00;;;;8362753;28;20246;-80
2023/03/17 07:01:14;;;;;;;3.20;2.80;;;;;4.70;96124.00;;;;8361133;28;20203;-76
2023/03/17 07:05:20;;;;;;;7.10;3.53;;;;;4.90;96126.00;;;;8357318;28;20335;-75
2023/03/17 07:09:24;;;;;;;3.97;2.80;;;;;5.10;96119.00;;;;8371047;28;20657;-77
2023/03/17 07:13:27;;;;;;;4.47;3.00;;;;;5.30;96118.00;;;;8361941;28;20212;-77
2023/03/17 07:17:32;;;;;;;6.90;3.40;;;;;5.40;96112.00;;;;8364712;28;20285;-75
2023/03/17 07:21:35;;;;;;;5.57;3.03;;;;;5.60;96122.00;;;;8360337;28;20200;-79
2023/03/17 07:25:42;;;;;;;3.80;2.80;;;;;5.70;96127.00;;;;8363125;28;20200;-75
2023/03/17 07:29:48;;;;;;;5.20;3.10;;;;;5.80;96128.00;;;;8353814;28;20202;-85
2023/03/17 07:33:56;;;;;;;7.30;3.60;;;;;5.90;96130.00;;;;8365159;28;20204;-77
2023/03/17 07:38:06;;;;;;;6.87;2.87;;;;;6.10;96132.00;;;;8356175;28;20223;-73
2023/03/17 07:42:13;;;;;;;7.60;3.50;;;;;6.20;96135.00;;;;8359347;28;20304;-76
2023/03/17 07:46:17;;;;;;;4.10;2.83;;;;;6.30;96142.00;;;;8361049;28;20227;-78
2023/03/17 07:50:24;;;;;;;6.93;3.17;;;;;6.40;96138.00;;;;8357859;28;20274;-76
2023/03/17 07:54:31;;;;;;;5.53;2.90;;;;;6.50;96144.00;;;;8356806;28;20918;-76
2023/03/17 07:58:34;;;;;;;4.27;2.83;;;;;6.70;96139.00;;;;8356391;28;20246;-76
2023/03/17 08:02:39;;;;;;;3.33;2.63;;;;;6.80;96142.00;;;;8357656;28;20274;-74
2023/03/17 08:06:45;;;;;;;5.80;2.67;;;;;7.00;96144.00;;;;8365557;28;20228;-74
2023/03/17 08:10:50;;;;;;;2.73;2.53;;;;;7.20;96142.00;;;;8363075;28;20284;-74
2023/03/17 08:14:54;;;;;;;3.50;2.70;;;;;7.50;96143.00;;;;8362484;28;20207;-76
2023/03/17 08:18:59;;;;;;;7.00;3.07;;;;;7.70;96137.00;;;;8344376;28;20200;-77
2023/03/17 08:23:03;;;;;;;3.77;2.30;;;;;8.00;96136.00;;;;8355218;28;20291;-79
2023/03/17 08:27:07;;;;;;;10.57;3.20;;;;;8.20;96132.00;;;;8358528;28;20220;-78
2023/03/17 08:31:15;;;;;;;5.37;2.37;;;;;8.40;96127.00;;;;8367565;28;20599;-76
2023/03/17 08:35:21;;;;;;;3.73;2.40;;;;;8.50;96119.00;;;;8372415;28;20672;-78
2023/03/17 08:39:25;;;;;;;4.00;2.43;;;;;8.70;96108.00;;;;8377166;28;20823;-77
2023/03/17 08:43:31;;;;;;;3.30;2.50;;;;;8.90;96095.00;;;;8377728;28;20291;-78
2023/03/17 08:47:34;;;;;;;4.80;2.60;;;;;9.10;96109.00;;;;8369704;28;20246;-78
2023/03/17 08:51:40;;;;;;;2.50;2.30;;;;;9.30;96098.00;;;;8376058;28;20201;-77
2023/03/17 08:55:48;;;;;;;2.67;2.40;;;;;9.50;96109.00;;;;8367374;28;20231;-78
2023/03/17 08:59:53;;;;;;;4.03;2.53;;;;;9.80;96116.00;;;;8361727;28;20192;-76
2023/03/17 09:03:57;;;;;;;5.43;2.60;;;;;10.20;96124.00;;;;8373915;28;20223;-74
2023/03/17 09:08:01;;;;;;;3.58;2.35;;;;;10.60;96123.00;;;;8369479;28;20668;-73
2023/03/17 09:12:08;;;;;;;6.53;2.20;;;;;11.00;96117.00;;;;8364610;28;20623;-75
2023/03/17 09:16:11;;;;;;;2.78;2.55;;;;;11.70;96115.00;;;;8359472;28;20265;-75
2023/03/17 09:20:14;;;;;;;2.72;2.38;;;;;12.20;96093.00;;;;8361645;28;20205;-79
2023/03/17 09:24:18;;;;;;;3.90;2.72;;;;;12.60;96103.00;;;;8364143;28;20208;-76
2023/03/17 09:28:23;;;;;;;8.18;2.78;;;;;12.80;96101.00;;;;8359332;28;20550;-80
2023/03/17 09:32:31;;;;;;;3.88;2.38;;;;;13.00;96097.00;;;;8360053;28;20248;-84
2023/03/17 09:36:34;;;;;;;3.30;2.72;;;;;13.40;96088.00;;;;8368699;28;20217;-76
2023/03/17 09:40:45;;;;;;;4.95;2.80;;;;;13.80;96095.00;;;;8372054;28;20201;-75
2023/03/17 09:45:12;;;;;;;6.47;2.95;;;;;14.30;96094.00;;;;8368998;28;20234;-79
2023/03/17 09:49:24;;;;;;;4.18;2.78;;;;;14.80;96088.00;;;;8363985;28;20644;-77
2023/03/17 09:53:38;;;;;;;5.03;2.15;;;;;15.20;96081.00;;;;8371159;28;20248;-80
2023/03/17 09:57:46;;;;;;;3.08;2.55;;;;;15.30;96079.00;;;;8369679;28;20326;-80
2023/03/17 10:01:51;;;;;;;4.93;2.78;;;;;15.20;96085.00;;;;8375947;28;20246;-81
2023/03/17 10:06:07;;;;;;;9.07;2.92;;;;;15.20;96076.00;;;;8370076;28;20272;-76
2023/03/17 10:10:15;;;;;;;3.08;2.88;;;;;15.20;96073.00;;;;8365421;28;20294;-76
2023/03/17 10:14:30;;;;;;;3.75;2.67;;;;;15.40;96069.00;;;;8378846;28;20195;-73
2023/03/17 10:18:44;;;;;;;4.00;3.20;;;;;15.50;96077.00;;;;8365443;28;20281;-78
2023/03/17 10:22:53;;;;;;;3.92;2.90;;;;;15.30;96076.00;;;;8375848;28;20243;-76
2023/03/17 10:26:59;;;;;;;6.72;3.00;;;;;15.30;96072.00;;;;8371061;28;20612;-75
2023/03/17 10:31:18;;;;;;;4.05;2.80;;;;;15.60;96078.00;;;;8356255;28;20481;-71
2023/03/17 10:35:26;;;;;;;4.03;3.00;;;;;15.70;96073.00;;;;8365451;28;20196;-76
2023/03/17 10:39:32;;;;;;;5.05;3.00;;;;;15.90;96072.00;;;;8372248;28;20321;-78
2023/03/17 10:43:41;;;;;;;3.20;2.95;;;;;15.90;96074.00;;;;8367197;28;20196;-77
2023/03/17 10:47:49;;;;;;;7.97;3.20;;;;;16.00;96067.00;;;;8360472;28;20201;-75
2023/03/17 10:51:56;;;;;;;3.20;2.90;;;;;16.20;96058.00;;;;8373976;28;20280;-73
2023/03/17 10:56:08;;;;;;;5.65;2.95;;;;;16.00;96061.00;;;;8372657;28;20200;-72
2023/03/17 11:00:18;;;;;;;2.90;2.70;;;;;16.00;96063.00;;;;8378872;28;20199;-74
2023/03/17 11:04:34;;;;;;;5.03;3.08;;;;;16.00;96063.00;;;;8378896;28;20235;-77
2023/03/17 11:08:42;;;;;;;5.20;3.03;;;;;16.00;96051.00;;;;8375537;28;20197;-72
2023/03/17 11:12:49;;;;;;;3.85;3.15;;;;;16.10;96053.00;;;;8396361;28;20200;-72
2023/03/17 11:16:54;;;;;;;3.75;3.08;;;;;16.00;96044.00;;;;8396196;28;20211;-72
2023/03/17 11:21:07;;;;;;;4.20;2.83;;;;;15.90;96044.00;;;;8396436;28;20641;-72
2023/03/17 11:25:18;;;;;;;5.18;2.78;;;;;16.00;96045.00;;;;8398118;28;20605;-72
2023/03/17 11:29:35;;;;;;;4.85;3.00;;;;;16.10;96036.00;;;;8398359;28;20649;-72
2023/03/17 11:33:46;;;;;;;2.72;2.53;;;;;16.20;96038.00;;;;8397853;28;20188;-72
2023/03/17 11:38:04;;;;;;;2.78;2.50;;;;;16.20;96036.00;;;;8397461;28;20220;-72
2023/03/17 11:42:17;;;;;;;3.78;2.78;;;;;16.30;96027.00;;;;8397343;28;20196;-73
2023/03/17 11:46:27;;;;;;;3.67;2.80;;;;;16.70;96022.00;;;;8398391;28;20607;-73
2023/03/17 11:50:39;;;;;;;3.92;2.63;;;;;16.80;96017.00;;;;8397091;28;20283;-71
2023/03/17 11:54:52;;;;;;;4.05;2.50;;;;;16.90;96007.00;;;;8396824;28;20204;-71
2023/03/17 11:59:09;;;;;;;3.92;2.50;;;;;16.90;96006.00;;;;8397224;28;20212;-71
2023/03/17 12:03:22;;;;;;;2.30;2.00;;;;;16.80;96008.00;;;;8397846;28;20228;-71
2023/03/17 12:07:29;;;;;;;2.85;2.40;;;;;16.80;96000.00;;;;8397717;28;20216;-69
2023/03/17 12:11:42;;;;;;;3.72;2.40;;;;;16.80;95998.00;;;;8402478;28;20231;-70
2023/03/17 12:15:51;;;;;;;2.53;2.30;;;;;16.90;95992.00;;;;8404565;28;20583;-69
2023/03/17 12:20:08;;;;;;;3.30;2.47;;;;;17.00;95980.00;;;;8404041;28;20688;-68
2023/03/17 12:24:18;;;;;;;4.95;2.53;;;;;17.10;95978.00;;;;8403534;28;20246;-69
2023/03/17 12:28:28;;;;;;;4.78;3.10;;;;;17.30;95967.00;;;;8403514;28;20250;-69
2023/03/17 12:32:40;;;;;;;2.42;2.20;;;;;17.40;95975.00;;;;8404157;28;20188;-69
2023/03/17 12:36:44;;;;;;;3.00;2.30;;;;;17.50;95971.00;;;;8402291;28;20219;-69
2023/03/17 12:41:06;;;;;;;3.17;2.42;;;;;17.70;95974.00;;;;8403316;28;20200;-69
2023/03/17 12:45:30;;;;;;;5.20;2.75;;;;;17.90;95964.00;;;;8402977;28;20232;-69
2023/03/17 12:50:01;;;;;;;2.80;2.50;;;;;18.10;95964.00;;;;8403188;28;20274;-69
2023/03/17 12:54:04;;;;;;;3.58;2.38;;;;;18.10;95955.00;;;;8403410;28;20183;-69
2023/03/17 12:58:23;;;;;;;2.95;2.42;;;;;18.10;95953.00;;;;8402199;28;20269;-69
2023/03/17 13:02:35;;;;;;;4.07;2.28;;;;;18.10;95950.00;;;;8402651;28;20318;-69
2023/03/17 13:06:44;;;;;;;5.45;2.45;;;;;18.10;95948.00;;;;8402493;28;20188;-69
2023/03/17 13:10:51;;;;;;;5.15;2.22;;;;;18.00;95940.00;;;;8403049;28;20200;-69
2023/03/17 13:14:54;;;;;;;3.50;2.78;;;;;18.10;95945.00;;;;8399478;28;20196;-69
2023/03/17 13:19:14;;;;;;;5.18;2.42;;;;;18.00;95955.00;;;;8400581;28;20224;-69
2023/03/17 13:23:35;;;;;;;2.58;2.38;;;;;18.00;95943.00;;;;8400630;28;20200;-69
2023/03/17 13:27:43;;;;;;;8.48;2.42;;;;;18.10;95934.00;;;;8401674;28;20192;-69
2023/03/17 13:31:46;;;;;;;2.22;2.10;;;;;18.20;95939.00;;;;8401855;28;20245;-69
2023/03/17 13:36:15;;;;;;;2.78;2.35;;;;;18.30;95921.00;;;;8401130;28;20691;-69
2023/03/17 13:40:23;;;;;;;2.45;2.30;;;;;18.40;95916.00;;;;8402553;28;20265;-69
2023/03/17 13:44:46;;;;;;;2.63;2.45;;;;;18.70;95930.00;;;;8402019;28;20196;-69
2023/03/17 13:48:50;;;;;;;3.38;2.40;;;;;18.90;95921.00;;;;8399628;28;20180;-69
2023/03/17 13:52:57;;;;;;;4.15;2.60;;;;;19.10;95926.00;;;;8397068;28;20196;-74
2023/03/17 14:01:39;;;;;;;3.63;2.30;;;;;19.10;95918.00;;;;8426545;27;21073;-71
2023/03/17 14:05:46;;;;;;;5.07;2.75;;;;;19.20;95916.00;;;;8425489;28;20207;-70
2023/03/17 14:09:52;;;;;;;3.28;2.97;;;;;19.20;95899.00;;;;8426677;28;20240;-70
2023/03/17 14:14:16;;;;;;;3.90;3.10;;;;;19.00;95893.00;;;;8426069;28;20184;-72
2023/03/17 14:18:38;;;;;;;3.60;3.08;;;;;19.00;95903.00;;;;8427217;28;20223;-73
2023/03/17 14:22:42;;;;;;;4.85;2.60;;;;;18.90;95899.00;;;;8425819;28;20187;-73
2023/03/17 14:26:52;;;;;;;2.95;2.67;;;;;19.00;95889.00;;;;8421255;28;20198;-72
2023/03/17 14:30:59;;;;;;;2.88;2.60;;;;;19.10;95888.00;;;;8425974;28;20290;-72
2023/03/17 14:35:05;;;;;;;5.22;3.10;;;;;19.10;95878.00;;;;8425417;28;20244;-72
2023/03/17 14:39:24;;;;;;;4.18;2.92;;;;;19.20;95882.00;;;;8423959;28;20223;-71
2023/03/17 14:43:27;;;;;;;3.20;2.90;;;;;19.10;95865.00;;;;8425386;28;20234;-71
2023/03/17 14:47:38;;;;;;;4.07;2.70;;;;;19.00;95865.00;;;;8426565;28;20196;-71
2023/03/17 14:51:49;;;;;;;4.45;2.55;;;;;19.00;95869.00;;;;8426542;28;20252;-71
2023/03/17 14:55:54;;;;;;;4.45;2.70;;;;;19.00;95859.00;;;;8427117;28;20231;-71
2023/03/17 15:00:06;;;;;;;3.88;2.92;;;;;18.90;95861.00;;;;8425705;28;20254;-71
2023/03/17 15:04:13;;;;;;;6.35;2.80;;;;;18.90;95849.00;;;;8425975;28;20225;-71
2023/03/17 15:08:39;;;;;;;5.32;2.95;;;;;18.90;95858.00;;;;8423648;28;20199;-71
2023/03/17 15:12:45;;;;;;;3.58;2.97;;;;;18.90;95869.00;;;;8403302;28;20724;-68
2023/03/17 15:16:51;;;;;;;3.25;2.72;;;;;18.90;95864.00;;;;8401787;28;20582;-69
2023/03/17 15:20:57;;;;;;;9.60;4.60;;;;;19.00;95864.00;;;;8398785;28;20216;-68
2023/03/17 15:25:05;;;;;;;9.60;7.13;;;;;19.00;95874.00;;;;8401825;28;20196;-68
2023/03/17 15:29:08;;;;;;;21.45;12.15;;;;;19.00;95863.00;;;;8401765;28;20629;-68
2023/03/17 15:33:20;;;;;;;8.80;5.32;;;;;19.00;95853.00;;;;8400736;28;20226;-68
2023/03/17 15:37:28;;;;;;;6.32;3.45;;;;;19.00;95856.00;;;;8399680;28;20192;-68
2023/03/17 15:41:37;;;;;;;10.25;4.57;;;;;18.90;95861.00;;;;8401413;28;20327;-68
2023/03/17 15:45:44;;;;;;;7.70;2.88;;;;;18.80;95850.00;;;;8401081;28;20238;-68
2023/03/17 15:49:53;;;;;;;3.08;2.75;;;;;18.70;95859.00;;;;8399039;28;20238;-68
2023/03/17 15:53:56;;;;;;;3.80;3.13;;;;;18.60;95853.00;;;;8401138;28;20668;-68
2023/03/17 15:58:03;;;;;;;3.53;3.00;;;;;18.40;95836.00;;;;8399629;28;20648;-67
2023/03/17 16:02:24;;;;;;;7.45;2.92;;;;;18.20;95837.00;;;;8400356;28;20232;-67
2023/03/17 16:06:27;;;;;;;5.03;2.95;;;;;18.10;95831.00;;;;8400751;28;20250;-68
2023/03/17 16:10:33;;;;;;;4.25;2.92;;;;;18.00;95828.00;;;;8398825;28;20636;-67
2023/03/17 16:14:40;;;;;;;8.25;2.65;;;;;17.90;95827.00;;;;8400377;28;20583;-68
2023/03/17 16:18:45;;;;;;;4.45;3.30;;;;;17.70;95818.00;;;;8399868;28;20270;-68
2023/03/17 16:22:49;;;;;;;4.40;3.17;;;;;17.50;95804.00;;;;8398246;28;20188;-68
2023/03/17 16:26:56;;;;;;;4.80;3.40;;;;;17.30;95805.00;;;;8399576;28;20203;-69
2023/03/17 16:31:03;;;;;;;4.75;3.22;;;;;17.10;95806.00;;;;8399468;28;20690;-68
2023/03/17 16:35:13;;;;;;;4.63;3.20;;;;;16.90;95807.00;;;;8398685;28;20196;-68
2023/03/17 16:39:25;;;;;;;4.35;3.03;;;;;16.80;95815.00;;;;8399648;28;20220;-68
2023/03/17 16:43:30;;;;;;;10.70;4.47;;;;;16.60;95813.00;;;;8398899;28;20214;-69
2023/03/17 16:47:38;;;;;;;10.23;4.63;;;;;16.40;95812.00;;;;8400149;28;20196;-69
2023/03/17 16:51:41;;;;;;;5.47;3.65;;;;;16.10;95810.00;;;;8398741;28;20246;-68
2023/03/17 16:55:45;;;;;;;3.50;3.00;;;;;15.90;95811.00;;;;8397623;28;20280;-68
2023/03/17 16:59:51;;;;;;;104.20;71.75;;;;;15.70;95814.00;;;;8398229;28;20604;-68
2023/03/17 17:07:40;;;;;;;11.55;4.40;;;;;15.10;95809.00;;;;8493099;27;20759;-70
2023/03/17 17:11:43;;;;;;;4.10;3.50;;;;;14.90;95811.00;;;;8494554;27;20273;-71
2023/03/17 17:15:46;;;;;;;7.30;3.70;;;;;14.70;95811.00;;;;8494178;27;20189;-71
2023/03/17 17:19:49;;;;;;;5.95;3.85;;;;;14.30;95824.00;;;;8493447;28;20201;-71
2023/03/17 17:23:57;;;;;;;9.27;4.18;;;;;13.80;95822.00;;;;8493310;27;20242;-71
2023/03/17 17:28:06;;;;;;;6.15;3.63;;;;;13.20;95825.00;;;;8493849;27;20186;-71
2023/03/17 17:32:09;;;;;;;10.80;4.50;;;;;12.70;95823.00;;;;8493428;28;20288;-70
2023/03/17 17:36:14;;;;;;;5.63;3.72;;;;;12.20;95822.00;;;;8493908;27;20581;-70
2023/03/17 17:40:23;;;;;;;15.40;6.05;;;;;11.80;95829.00;;;;8491339;28;20304;-71
2023/03/17 17:44:26;;;;;;;7.85;4.50;;;;;11.40;95833.00;;;;8493495;27;20218;-70
2023/03/17 17:48:32;;;;;;;11.18;4.55;;;;;11.10;95824.00;;;;8493344;27;20531;-70
2023/03/17 17:52:35;;;;;;;11.95;5.53;;;;;10.90;95823.00;;;;8493523;27;20198;-71
2023/03/17 17:56:46;;;;;;;9.60;4.82;;;;;10.60;95819.00;;;;8492308;27;20190;-71
2023/03/17 18:00:51;;;;;;;5.82;3.92;;;;;10.30;95816.00;;;;8493144;27;20204;-71
2023/03/17 18:04:54;;;;;;;7.68;3.58;;;;;10.30;95823.00;;;;8492077;28;20229;-71
2023/03/17 18:08:58;;;;;;;5.25;3.80;;;;;10.50;95828.00;;;;8492345;27;20288;-71
2023/03/17 18:13:02;;;;;;;9.23;4.00;;;;;10.80;95822.00;;;;8492151;27;20628;-71
2023/03/17 18:17:08;;;;;;;5.63;3.40;;;;;11.00;95826.00;;;;8478753;27;20227;-70
2023/03/17 18:21:13;;;;;;;3.00;2.70;;;;;11.20;95830.00;;;;8469750;28;20196;-74
2023/03/17 18:25:20;;;;;;;7.63;4.22;;;;;11.40;95837.00;;;;8468242;28;20212;-74
2023/03/17 18:29:30;;;;;;;9.57;6.60;;;;;11.50;95846.00;;;;8469271;28;20280;-74
2023/03/17 18:33:36;;;;;;;7.07;4.05;;;;;11.40;95842.00;;;;8469561;28;20199;-76
2023/03/17 18:37:43;;;;;;;13.48;5.57;;;;;11.30;95836.00;;;;8469059;28;20226;-76
2023/03/17 18:41:49;;;;;;;11.90;4.32;;;;;11.20;95831.00;;;;8468996;28;20261;-72
2023/03/17 18:45:54;;;;;;;8.77;3.55;;;;;11.20;95827.00;;;;8468726;28;20223;-71
2023/03/17 18:49:58;;;;;;;4.90;3.45;;;;;11.30;95829.00;;;;8467796;28;20291;-71
2023/03/17 18:54:01;;;;;;;10.65;4.50;;;;;11.30;95829.00;;;;8467892;28;20620;-71
2023/03/17 18:58:10;;;;;;;7.10;3.90;;;;;11.20;95825.00;;;;8468196;28;20681;-71
2023/03/17 19:02:16;;;;;;;4.93;3.70;;;;;11.20;95811.00;;;;8468740;27;20221;-72
2023/03/17 19:06:21;;;;;;;8.07;3.97;;;;;11.20;95821.00;;;;8466638;28;20674;-71
2023/03/17 19:10:25;;;;;;;8.32;4.45;;;;;11.20;95809.00;;;;8468388;27;20289;-71
2023/03/17 19:14:29;;;;;;;5.95;3.95;;;;;11.10;95809.00;;;;8467057;28;20219;-71
2023/03/17 19:18:35;;;;;;;8.07;4.07;;;;;11.10;95808.00;;;;8467471;28;20247;-71
2023/03/17 19:22:40;;;;;;;6.22;3.65;;;;;11.20;95802.00;;;;8467347;28;20228;-71
2023/03/17 19:26:45;;;;;;;5.97;4.00;;;;;11.20;95803.00;;;;8467540;28;20226;-76
2023/03/17 19:30:50;;;;;;;8.60;4.43;;;;;11.20;95805.00;;;;8466138;28;20194;-71
2023/03/17 19:34:56;;;;;;;7.82;4.95;;;;;11.00;95809.00;;;;8466395;28;20201;-72
2023/03/17 19:39:03;;;;;;;14.75;7.55;;;;;10.80;95804.00;;;;8464788;28;20201;-72
2023/03/17 19:43:09;;;;;;;17.13;9.63;;;;;10.80;95797.00;;;;8466944;28;20501;-72
2023/03/17 19:47:16;;;;;;;18.75;7.50;;;;;10.70;95801.00;;;;8466536;28;20290;-72
2023/03/17 19:51:21;;;;;;;17.25;9.00;;;;;10.60;95804.00;;;;8466717;28;20268;-71
2023/03/17 19:55:25;;;;;;;12.10;6.30;;;;;10.50;95797.00;;;;8466545;28;20195;-71
2023/03/17 19:59:30;;;;;;;10.02;4.82;;;;;10.30;95806.00;;;;8466698;28;20195;-72
2023/03/17 20:03:34;;;;;;;18.00;6.65;;;;;10.30;95811.00;;;;8466076;28;20218;-71
2023/03/17 20:07:38;;;;;;;16.08;6.55;;;;;10.30;95806.00;;;;8465655;28;20659;-72
2023/03/17 20:11:41;;;;;;;20.23;6.10;;;;;10.10;95813.00;;;;8465223;28;20577;-72
2023/03/17 20:15:47;;;;;;;7.65;4.88;;;;;9.80;95820.00;;;;8465195;28;20205;-72
2023/03/17 20:19:50;;;;;;;10.17;5.70;;;;;9.60;95826.00;;;;8466343;28;20191;-72
2023/03/17 20:23:57;;;;;;;9.68;5.07;;;;;9.30;95819.00;;;;8465269;28;20198;-73
2023/03/17 20:28:00;;;;;;;9.03;4.60;;;;;9.10;95822.00;;;;8466045;28;20544;-72
2023/03/17 20:32:05;;;;;;;7.33;4.83;;;;;8.70;95827.00;;;;8465199;28;20619;-71
2023/03/17 20:36:13;;;;;;;15.27;5.53;;;;;8.40;95819.00;;;;8459248;28;20194;-71
2023/03/17 20:40:18;;;;;;;10.93;5.23;;;;;8.10;95823.00;;;;8462511;28;20650;-71
2023/03/17 20:44:22;;;;;;;10.30;5.13;;;;;7.80;95824.00;;;;8464278;28;20206;-71
2023/03/17 20:48:28;;;;;;;11.03;5.47;;;;;7.70;95830.00;;;;8465033;28;20593;-72
2023/03/17 20:52:32;;;;;;;10.43;5.30;;;;;7.50;95819.00;;;;8465353;28;20265;-71